Time;durP1;ratioP1;P1;durP2;ratioP2;P2;SDS_P1;SDS_P2;PMS_P1;PMS_P2;Temp;Humidity;BMP_temperature;BMP_pressure;BME280_temperature;BME280_humidity;BME280_pressure;Samples;Min_cycle;Max_cycle;Signal;HPM_P1;HPM_P2
2022/11/04 00:00:07;;;;;;;3.83;2.95;;;;;;;11.09;79.35;100077.94;4802949;29;20166;-90
2022/11/04 00:02:32;;;;;;;2.20;1.23;;;;;;;10.91;77.98;100078.94;4796946;29;20027;-89
2022/11/04 00:04:58;;;;;;;1.75;1.60;;;;;;;10.89;78.66;100088.75;4796350;29;20409;-89
2022/11/04 00:10:14;;;;;;;2.90;1.75;;;;;;;10.89;78.62;100084.31;4749400;29;20107;-88
2022/11/04 00:12:39;;;;;;;2.75;2.17;;;;;;;10.76;78.94;100064.75;4798817;29;20110;-89
2022/11/04 00:17:49;;;;;;;2.28;1.50;;;;;;;10.78;77.07;100064.69;4787664;29;20047;-88
2022/11/04 00:28:44;;;;;;;3.40;1.85;;;;;;;10.61;79.95;100099.94;4796969;29;20401;-88
2022/11/04 00:33:56;;;;;;;2.25;1.95;;;;;;;10.63;79.72;100100.69;4793735;29;20134;-88
2022/11/04 00:36:23;;;;;;;2.28;1.70;;;;;;;10.62;80.25;100107.78;4798447;29;20161;-88
2022/11/04 00:38:48;;;;;;;6.18;4.82;;;;;;;10.51;81.35;100091.63;4761642;29;20039;-88
2022/11/04 00:41:26;;;;;;;7.63;5.57;;;;;;;10.51;81.83;100115.41;4784439;29;20030;-87
2022/11/04 00:43:55;;;;;;;10.80;7.18;;;;;;;10.54;82.48;100102.06;4793444;29;20039;-88
2022/11/04 00:46:20;;;;;;;8.73;7.30;;;;;;;10.46;82.59;100093.66;4805745;29;20097;-87
2022/11/04 00:48:46;;;;;;;9.48;8.10;;;;;;;10.50;82.75;100099.66;4800566;29;20476;-89
2022/11/04 00:51:11;;;;;;;10.07;7.65;;;;;;;10.52;82.60;100103.06;4786361;29;20027;-88
2022/11/04 00:53:36;;;;;;;13.00;8.32;;;;;;;10.51;82.93;100104.84;4789509;29;20058;-88
2022/11/04 00:56:01;;;;;;;8.93;7.35;;;;;;;10.61;82.45;100118.44;4780821;29;20495;-88
2022/11/04 00:58:28;;;;;;;13.35;8.23;;;;;;;10.61;82.79;100099.94;4789771;29;20026;-89
2022/11/04 01:00:53;;;;;;;9.20;6.75;;;;;;;10.61;82.53;100119.28;4795497;29;20054;-88
2022/11/04 01:03:18;;;;;;;12.35;9.13;;;;;;;10.49;83.12;100125.19;4789073;29;20484;-88
2022/11/04 01:05:43;;;;;;;9.90;8.10;;;;;;;10.48;83.39;100118.19;4788706;29;20031;-87
2022/11/04 01:08:09;;;;;;;12.30;8.60;;;;;;;10.57;83.18;100122.16;4784853;29;20104;-88
2022/11/04 01:10:35;;;;;;;10.80;7.85;;;;;;;10.64;83.05;100127.06;4772111;30;20498;-88
2022/11/04 01:13:00;;;;;;;10.65;8.20;;;;;;;10.69;82.82;100127.69;4787251;29;20035;-88
2022/11/04 01:15:26;;;;;;;10.27;7.75;;;;;;;10.59;83.16;100133.53;4796154;29;20050;-88
2022/11/04 01:17:51;;;;;;;11.32;8.55;;;;;;;10.49;83.11;100119.91;4792763;29;20045;-88
2022/11/04 01:20:16;;;;;;;11.98;7.55;;;;;;;10.52;82.57;100134.75;4800775;29;20047;-87
2022/11/04 01:22:42;;;;;;;12.73;9.27;;;;;;;10.43;82.84;100133.44;4792930;29;20035;-88
2022/11/04 01:25:08;;;;;;;14.45;8.88;;;;;;;10.45;82.05;100132.44;4804597;29;20027;-88
2022/11/04 01:27:33;;;;;;;14.40;9.07;;;;;;;10.31;82.73;100145.50;4801328;29;20574;-88
2022/11/04 01:29:58;;;;;;;15.70;9.00;;;;;;;10.26;82.62;100141.34;4792354;29;20039;-88
2022/11/04 01:32:24;;;;;;;11.82;8.25;;;;;;;10.23;83.09;100140.56;4798704;29;20076;-88
2022/11/04 01:34:49;;;;;;;14.45;9.02;;;;;;;10.26;83.24;100147.53;4772970;30;20035;-89
2022/11/04 01:37:14;;;;;;;14.13;8.57;;;;;;;10.25;83.09;100137.00;4786544;29;20431;-88
2022/11/04 01:39:39;;;;;;;13.63;8.80;;;;;;;10.23;82.86;100131.78;4778128;29;20031;-88
2022/11/04 01:42:05;;;;;;;14.32;7.68;;;;;;;10.26;82.79;100134.31;4801089;29;20735;-89
2022/11/04 01:44:57;;;;;;;14.15;8.35;;;;;;;10.37;82.79;100154.91;4790816;29;20135;-88
2022/11/04 01:47:30;;;;;;;15.43;8.93;;;;;;;10.17;82.42;100119.75;4792573;29;20047;-88
2022/11/04 01:50:19;;;;;;;12.00;7.60;;;;;;;10.49;81.44;100148.97;4798685;29;20400;-89
2022/11/04 01:52:59;;;;;;;14.32;7.70;;;;;;;10.32;82.01;100141.91;4804622;29;20486;-88
2022/11/04 01:55:27;;;;;;;13.95;7.32;;;;;;;10.22;82.48;100135.38;4793603;29;20384;-88
2022/11/04 01:58:00;;;;;;;10.90;7.03;;;;;;;10.13;82.71;100130.53;4797425;29;20030;-89
2022/11/04 02:00:25;;;;;;;7.95;5.95;;;;;;;10.18;82.75;100139.09;4778009;29;20031;-88
2022/11/04 02:03:07;;;;;;;13.80;6.28;;;;;;;10.23;82.40;100158.19;4803108;29;20041;-88
2022/11/04 02:05:33;;;;;;;9.13;5.80;;;;;;;10.08;82.34;100141.31;4770844;29;20038;-89
2022/11/04 02:08:01;;;;;;;7.20;4.60;;;;;;;10.02;82.50;100130.19;4802216;29;20039;-88
2022/11/04 02:10:28;;;;;;;8.80;5.43;;;;;;;9.99;83.31;100148.84;4793609;29;20479;-89
2022/11/04 02:12:55;;;;;;;9.43;5.20;;;;;;;9.93;83.48;100158.78;4801943;29;20606;-89
2022/11/04 02:15:40;;;;;;;11.18;4.50;;;;;;;9.95;82.90;100163.97;4795031;29;20065;-89
2022/11/04 02:18:42;;;;;;;10.18;4.35;;;;;;;9.98;82.73;100166.47;4781593;29;20107;-88
2022/11/04 02:21:25;;;;;;;10.07;4.70;;;;;;;9.92;82.58;100159.69;4796880;29;20082;-89
2022/11/04 02:24:16;;;;;;;7.70;2.78;;;;;;;9.89;82.48;100159.00;4797109;29;20085;-88
2022/11/04 02:27:05;;;;;;;10.35;4.45;;;;;;;9.83;82.85;100154.84;4776426;29;20031;-89
2022/11/04 02:29:43;;;;;;;8.52;3.83;;;;;;;9.86;82.35;100170.56;4790089;29;20061;-89
2022/11/04 02:32:23;;;;;;;5.85;3.38;;;;;;;9.84;82.52;100180.34;4792199;29;20026;-89
2022/11/04 02:34:58;;;;;;;6.80;4.10;;;;;;;9.64;83.00;100154.00;4793806;29;20037;-88
2022/11/04 02:37:35;;;;;;;7.90;3.70;;;;;;;9.67;83.08;100173.22;4796024;29;20085;-88
2022/11/04 02:40:26;;;;;;;7.82;3.50;;;;;;;9.65;83.14;100177.72;4785120;29;20493;-89
2022/11/04 02:43:10;;;;;;;9.10;2.88;;;;;;;9.60;83.37;100174.41;4783866;29;20023;-89
2022/11/04 02:45:42;;;;;;;5.15;2.53;;;;;;;9.59;83.65;100177.13;4791307;29;20095;-89
2022/11/04 02:48:14;;;;;;;4.78;3.00;;;;;;;9.59;83.20;100169.22;4776382;30;20408;-89
2022/11/04 02:51:05;;;;;;;4.93;2.22;;;;;;;9.55;82.91;100163.22;4790850;29;20031;-88
2022/11/04 02:53:37;;;;;;;8.10;2.72;;;;;;;9.44;83.53;100168.16;4790142;29;20081;-88
2022/11/04 02:56:05;;;;;;;5.90;2.60;;;;;;;9.51;82.98;100177.47;4803432;29;20027;-88
2022/11/04 02:58:42;;;;;;;4.57;2.63;;;;;;;9.50;83.13;100178.41;4787777;29;20036;-89
2022/11/04 03:01:12;;;;;;;7.65;2.70;;;;;;;9.41;83.62;100170.91;4779411;29;20031;-89
2022/11/04 03:03:42;;;;;;;5.13;2.67;;;;;;;9.48;83.25;100179.44;4782013;30;20085;-89
2022/11/04 03:06:11;;;;;;;5.25;2.20;;;;;;;9.37;83.23;100161.44;4778701;29;20482;-88
2022/11/04 03:08:46;;;;;;;4.35;2.40;;;;;;;9.33;83.27;100160.75;4764050;29;20035;-89
2022/11/04 03:11:20;;;;;;;5.40;2.33;;;;;;;9.42;82.97;100177.94;4790249;29;20282;-89
2022/11/04 03:13:51;;;;;;;5.68;2.28;;;;;;;9.33;83.16;100170.44;4778658;29;20553;-89
2022/11/04 03:16:22;;;;;;;5.15;1.90;;;;;;;9.38;83.59;100187.75;4788593;29;20023;-89
2022/11/04 03:19:03;;;;;;;6.38;2.00;;;;;;;9.36;83.02;100188.75;4794699;29;20046;-89
2022/11/04 03:21:32;;;;;;;4.82;2.30;;;;;;;9.19;83.29;100182.47;4790735;29;20055;-89
2022/11/04 03:23:59;;;;;;;5.35;2.13;;;;;;;9.20;83.61;100186.81;4775362;30;20081;-89
2022/11/04 03:26:32;;;;;;;4.97;2.40;;;;;;;9.18;83.42;100185.16;4802495;29;20043;-89
2022/11/04 03:29:16;;;;;;;8.07;2.35;;;;;;;9.26;83.55;100195.38;4802443;29;20091;-89
2022/11/04 03:31:47;;;;;;;4.30;2.00;;;;;;;9.28;83.22;100209.31;4800568;29;20100;-88
2022/11/04 03:34:13;;;;;;;5.45;2.25;;;;;;;9.14;83.30;100191.53;4774662;29;20023;-89
2022/11/04 03:36:38;;;;;;;6.70;2.50;;;;;;;9.14;83.71;100199.44;4779387;29;20096;-89
2022/11/04 03:39:04;;;;;;;3.60;1.80;;;;;;;9.08;83.51;100192.63;4790524;29;20038;-89
2022/11/04 03:41:37;;;;;;;7.03;1.80;;;;;;;9.03;83.64;100199.03;4798145;29;20511;-89
2022/11/04 03:44:03;;;;;;;2.70;1.90;;;;;;;9.04;83.43;100209.50;4797737;29;20039;-89
2022/11/04 03:46:28;;;;;;;8.27;1.85;;;;;;;9.05;83.75;100210.38;4768641;30;20031;-89
2022/11/04 03:48:54;;;;;;;2.45;1.65;;;;;;;8.92;83.48;100202.13;4797356;29;20050;-89
2022/11/04 03:51:20;;;;;;;6.85;2.53;;;;;;;8.98;84.03;100209.78;4784248;29;20038;-89
2022/11/04 03:53:45;;;;;;;6.60;1.75;;;;;;;8.85;83.35;100192.78;4769662;30;20028;-89
2022/11/04 03:56:35;;;;;;;6.65;2.20;;;;;;;8.95;83.70;100209.91;4786510;29;20108;-89
2022/11/04 03:59:28;;;;;;;4.10;2.17;;;;;;;8.84;84.06;100201.59;4782404;29;20062;-89
2022/11/04 04:02:02;;;;;;;5.90;2.70;;;;;;;8.83;83.33;100206.03;4791243;29;20395;-89
2022/11/04 04:04:32;;;;;;;9.50;2.38;;;;;;;8.83;82.51;100215.72;4791873;29;20491;-89
2022/11/04 04:07:06;;;;;;;4.32;2.42;;;;;;;8.76;83.05;100198.44;4794872;29;20448;-88
2022/11/04 04:09:56;;;;;;;11.52;3.30;;;;;;;8.79;83.06;100200.97;4794103;29;20027;-89
2022/11/04 04:12:35;;;;;;;8.45;2.85;;;;;;;8.80;82.84;100208.78;4798657;29;20034;-89
2022/11/04 04:15:12;;;;;;;6.28;3.15;;;;;;;8.71;82.96;100216.22;4765915;29;20039;-89
2022/11/04 04:17:45;;;;;;;9.73;3.30;;;;;;;8.58;83.31;100215.88;4793381;29;20115;-88
2022/11/04 04:20:18;;;;;;;7.20;3.53;;;;;;;8.56;82.75;100220.38;4787586;29;20524;-88
2022/11/04 04:22:47;;;;;;;10.07;4.10;;;;;;;8.58;82.75;100226.41;4784072;29;20031;-89
2022/11/04 04:28:02;;;;;;;8.07;4.28;;;;;;;8.55;81.94;100229.22;4782725;29;20042;-89
2022/11/04 04:30:27;;;;;;;11.70;3.78;;;;;;;8.48;82.38;100230.38;4776896;29;20031;-88
2022/11/04 04:32:58;;;;;;;7.15;4.32;;;;;;;8.42;83.54;100231.47;4783385;30;20050;-89
2022/11/04 04:35:41;;;;;;;9.45;4.13;;;;;;;8.40;82.56;100239.47;4779030;29;20433;-89
2022/11/04 04:46:50;;;;;;;9.27;4.18;;;;;;;8.36;80.37;100255.41;4788929;29;20123;-88
2022/11/04 04:49:16;;;;;;;9.85;3.85;;;;;;;8.19;80.96;100235.88;4800808;29;20034;-88
2022/11/04 04:51:46;;;;;;;7.00;3.80;;;;;;;8.15;81.08;100251.84;4786675;29;20031;-88
2022/11/04 04:54:12;;;;;;;7.32;3.90;;;;;;;8.10;82.50;100253.81;4787432;29;20068;-89
2022/11/04 04:56:38;;;;;;;8.63;4.43;;;;;;;8.05;82.77;100253.97;4785426;29;20121;-88
2022/11/04 04:59:03;;;;;;;8.13;4.20;;;;;;;8.04;83.13;100246.16;4780815;30;20173;-88
2022/11/04 05:01:29;;;;;;;7.40;3.65;;;;;;;7.96;83.00;100256.13;4799521;29;20039;-88
2022/11/04 05:03:54;;;;;;;6.20;3.53;;;;;;;7.83;81.77;100248.72;4796937;29;20139;-88
2022/11/04 05:06:19;;;;;;;6.47;3.70;;;;;;;7.80;82.70;100253.22;4775432;29;20593;-88
2022/11/04 05:08:44;;;;;;;10.98;4.05;;;;;;;7.79;83.07;100257.63;4805096;29;20041;-88
2022/11/04 05:11:10;;;;;;;7.75;3.78;;;;;;;7.84;82.58;100260.09;4792776;29;20403;-88
2022/11/04 05:13:35;;;;;;;6.80;3.55;;;;;;;7.79;82.34;100260.28;4796944;29;20042;-88
2022/11/04 05:16:06;;;;;;;8.05;3.20;;;;;;;7.72;81.49;100255.28;4795349;29;20053;-89
2022/11/04 05:18:32;;;;;;;6.55;2.85;;;;;;;7.79;82.36;100267.31;4795958;29;20122;-88
2022/11/04 05:20:57;;;;;;;5.57;3.00;;;;;;;7.79;82.98;100270.78;4771415;29;20161;-88
2022/11/04 05:23:22;;;;;;;7.10;2.95;;;;;;;7.65;82.60;100254.69;4769356;30;20035;-88
2022/11/04 05:25:48;;;;;;;4.75;3.00;;;;;;;7.67;82.77;100265.97;4782159;30;20046;-89
2022/11/04 05:28:13;;;;;;;5.63;2.97;;;;;;;7.71;82.01;100272.00;4785476;29;20070;-89
2022/11/04 05:30:38;;;;;;;4.07;2.60;;;;;;;7.76;82.38;100270.03;4778231;30;20057;-88
2022/11/04 05:33:04;;;;;;;5.43;2.92;;;;;;;7.80;81.50;100293.56;4777127;30;20385;-88
2022/11/04 05:35:29;;;;;;;7.15;3.20;;;;;;;7.77;82.71;100283.13;4778064;29;20258;-88
2022/11/04 05:37:55;;;;;;;6.43;2.78;;;;;;;7.90;82.20;100283.53;4760698;30;20035;-88
2022/11/04 05:40:21;;;;;;;5.45;2.70;;;;;;;7.93;82.04;100280.81;4773295;30;20147;-88
2022/11/04 05:42:46;;;;;;;7.15;2.83;;;;;;;7.92;82.48;100277.28;4779170;29;20032;-89
2022/11/04 05:45:11;;;;;;;4.57;2.40;;;;;;;7.89;82.89;100271.31;4767085;30;20039;-88
2022/11/04 05:47:36;;;;;;;5.22;2.17;;;;;;;8.06;83.12;100295.19;4770045;30;20027;-88
2022/11/04 05:50:02;;;;;;;2.60;2.00;;;;;;;8.10;82.61;100293.28;4779807;29;20035;-88
2022/11/04 05:52:27;;;;;;;1.92;1.73;;;;;;;8.19;82.39;100308.72;4768644;30;20035;-88
2022/11/04 05:54:52;;;;;;;3.97;1.88;;;;;;;8.18;82.63;100301.75;4779163;30;20031;-88
2022/11/04 05:57:18;;;;;;;3.92;1.90;;;;;;;8.17;82.67;100300.91;4777584;30;20507;-88
2022/11/04 05:59:43;;;;;;;4.50;2.42;;;;;;;8.30;82.80;100319.72;4768341;30;20036;-88
2022/11/04 06:02:08;;;;;;;3.00;2.15;;;;;;;8.26;82.03;100310.22;4785911;29;20037;-88
2022/11/04 06:04:34;;;;;;;4.90;2.47;;;;;;;8.61;81.57;100316.75;4772020;30;20039;-88
2022/11/04 06:06:59;;;;;;;9.75;3.00;;;;;;;8.33;82.75;100319.59;4774905;30;20059;-88
2022/11/04 06:09:37;;;;;;;4.30;2.40;;;;;;;8.24;82.83;100314.69;4773894;29;20046;-88
2022/11/04 06:12:14;;;;;;;3.17;1.98;;;;;;;8.15;82.59;100305.34;4768280;30;20028;-88
2022/11/04 06:14:41;;;;;;;2.15;1.92;;;;;;;8.08;81.91;100303.91;4778854;29;20283;-89
2022/11/04 06:17:07;;;;;;;5.28;2.38;;;;;;;8.04;82.42;100298.81;4771339;30;20034;-89
2022/11/04 06:19:32;;;;;;;4.35;2.40;;;;;;;7.96;82.32;100306.97;4770843;29;20126;-89
2022/11/04 06:21:59;;;;;;;5.30;2.53;;;;;;;8.01;82.95;100318.19;4803648;29;20106;-88
2022/11/04 06:24:24;;;;;;;5.35;2.60;;;;;;;8.05;82.80;100327.69;4788818;29;20023;-88
2022/11/04 06:26:50;;;;;;;7.63;3.05;;;;;;;8.07;82.12;100331.16;4798863;29;20035;-88
2022/11/04 06:29:15;;;;;;;6.78;3.20;;;;;;;8.06;81.86;100321.50;4790816;29;20034;-88
2022/11/04 06:31:40;;;;;;;6.35;3.33;;;;;;;8.06;82.81;100329.41;4802843;29;20084;-88
2022/11/04 06:34:05;;;;;;;10.45;3.33;;;;;;;8.07;83.03;100331.16;4791747;29;20066;-88
2022/11/04 06:36:31;;;;;;;5.55;2.60;;;;;;;8.03;82.09;100326.06;4801514;29;20109;-88
2022/11/04 06:38:56;;;;;;;4.90;2.95;;;;;;;8.03;83.16;100331.31;4779508;29;20118;-88
2022/11/04 06:41:21;;;;;;;6.82;2.92;;;;;;;8.02;82.93;100332.22;4793675;29;20086;-88
2022/11/04 06:43:46;;;;;;;4.28;2.90;;;;;;;7.99;83.02;100327.94;4797938;29;20041;-88
2022/11/04 06:46:26;;;;;;;5.78;2.83;;;;;;;7.89;82.48;100330.06;4778146;29;20031;-88
2022/11/04 06:48:51;;;;;;;4.05;2.95;;;;;;;7.76;81.67;100338.47;4782189;29;20041;-88
2022/11/04 06:51:16;;;;;;;4.18;3.17;;;;;;;7.72;82.89;100340.34;4803131;29;20031;-88
2022/11/04 06:53:42;;;;;;;7.38;2.83;;;;;;;7.79;81.90;100352.38;4798905;29;20031;-88
2022/11/04 06:56:08;;;;;;;8.48;3.35;;;;;;;7.85;81.34;100364.44;4794491;29;20171;-88
2022/11/04 06:58:33;;;;;;;4.38;2.70;;;;;;;7.79;80.44;100364.69;4782689;29;20051;-88
2022/11/04 07:00:59;;;;;;;4.55;2.42;;;;;;;7.66;81.04;100359.84;4779117;29;20500;-88
2022/11/04 07:03:24;;;;;;;4.55;2.40;;;;;;;7.61;81.13;100358.28;4799349;29;20027;-88
2022/11/04 07:05:49;;;;;;;4.03;3.00;;;;;;;7.46;80.45;100359.69;4785338;29;20042;-88
2022/11/04 07:08:14;;;;;;;4.80;2.50;;;;;;;7.43;81.13;100358.94;4778829;29;20519;-88
2022/11/04 07:10:40;;;;;;;3.42;2.17;;;;;;;7.67;82.79;100374.72;4800623;29;20038;-88
2022/11/04 07:13:05;;;;;;;6.60;2.55;;;;;;;7.84;81.99;100363.59;4803323;29;20106;-88
2022/11/04 07:15:32;;;;;;;6.57;3.13;;;;;;;8.10;81.78;100380.19;4795036;29;20399;-87
2022/11/04 07:17:58;;;;;;;6.45;2.65;;;;;;;8.09;82.10;100360.88;4798790;29;20066;-88
2022/11/04 07:20:23;;;;;;;3.88;2.75;;;;;;;8.18;82.20;100371.06;4770013;29;20113;-88
2022/11/04 07:22:49;;;;;;;5.78;2.65;;;;;;;8.10;82.78;100370.50;4782476;30;20431;-88
2022/11/04 07:25:14;;;;;;;4.65;2.40;;;;;;;8.19;82.66;100375.41;4775380;30;20275;-88
2022/11/04 07:27:39;;;;;;;6.75;2.65;;;;;;;8.37;82.05;100379.16;4777976;30;20043;-88
2022/11/04 07:30:05;;;;;;;6.55;2.85;;;;;;;8.42;82.33;100385.13;4773649;30;20528;-87
2022/11/04 07:32:31;;;;;;;4.68;2.53;;;;;;;8.45;82.63;100394.69;4779128;29;20504;-88
2022/11/04 07:34:57;;;;;;;3.50;2.33;;;;;;;8.38;81.99;100372.97;4777864;29;20035;-88
2022/11/04 07:37:22;;;;;;;5.32;2.60;;;;;;;8.62;82.01;100401.91;4765631;30;20128;-88
2022/11/04 07:39:47;;;;;;;3.95;2.67;;;;;;;8.68;81.81;100405.19;4768071;30;20381;-88
2022/11/04 07:42:12;;;;;;;5.90;2.88;;;;;;;8.72;81.77;100403.31;4783204;29;20034;-88
2022/11/04 07:44:38;;;;;;;9.85;3.28;;;;;;;8.81;82.07;100397.66;4786681;29;20092;-88
2022/11/04 07:47:03;;;;;;;7.40;3.50;;;;;;;8.87;82.18;100407.09;4773387;30;20387;-88
2022/11/04 07:49:28;;;;;;;4.40;3.05;;;;;;;8.81;82.03;100399.41;4783672;29;20027;-88
2022/11/04 07:51:53;;;;;;;4.55;3.47;;;;;;;8.65;82.80;100399.19;4782428;29;20039;-88
2022/11/04 07:54:19;;;;;;;6.90;3.53;;;;;;;8.75;83.43;100405.78;4779475;30;20393;-88
2022/11/04 07:56:44;;;;;;;4.72;2.60;;;;;;;8.93;80.76;100414.75;4783080;30;20023;-88
2022/11/04 07:59:10;;;;;;;7.05;3.55;;;;;;;8.95;82.69;100407.63;4779630;30;20520;-88
2022/11/04 08:01:35;;;;;;;7.70;3.63;;;;;;;9.01;82.93;100409.19;4783468;30;20043;-88
2022/11/04 08:04:01;;;;;;;6.90;3.63;;;;;;;9.23;82.62;100404.72;4788447;29;20038;-88
2022/11/04 08:06:26;;;;;;;8.10;3.78;;;;;;;9.38;82.28;100419.06;4776253;30;20039;-88
2022/11/04 08:08:52;;;;;;;12.27;4.78;;;;;;;9.47;82.14;100418.69;4780121;29;20055;-88
2022/11/04 08:11:22;;;;;;;9.75;4.65;;;;;;;9.35;82.98;100419.19;4780139;30;20035;-88
2022/11/04 08:13:47;;;;;;;11.50;4.40;;;;;;;9.46;82.38;100419.59;4778635;29;20161;-88
2022/11/04 08:16:16;;;;;;;7.65;4.00;;;;;;;9.60;82.46;100422.50;4776198;29;20107;-88
2022/11/04 08:18:42;;;;;;;7.10;3.95;;;;;;;9.76;82.01;100433.25;4779415;29;20043;-88
2022/11/04 08:21:08;;;;;;;9.95;4.05;;;;;;;9.96;80.69;100437.66;4794214;29;20546;-88
2022/11/04 08:23:33;;;;;;;9.32;4.10;;;;;;;10.11;81.66;100441.41;4796703;29;20027;-88
2022/11/04 08:26:00;;;;;;;8.68;3.70;;;;;;;10.29;81.20;100443.25;4794311;29;20039;-88
2022/11/04 08:28:26;;;;;;;8.57;4.15;;;;;;;10.49;80.31;100452.91;4781007;30;20067;-87
2022/11/04 08:31:02;;;;;;;8.68;4.05;;;;;;;10.75;79.57;100449.06;4794584;29;20408;-88
2022/11/04 08:33:30;;;;;;;9.25;4.63;;;;;;;11.56;79.29;100463.63;4806073;29;20563;-88
2022/11/04 08:35:59;;;;;;;7.53;4.40;;;;;;;11.84;75.98;100446.34;4791474;29;20692;-87
2022/11/04 08:38:25;;;;;;;7.28;4.32;;;;;;;12.44;74.34;100463.47;4766671;30;20035;-88
2022/11/04 08:40:50;;;;;;;5.95;3.15;;;;;;;12.69;73.98;100457.69;4801425;29;20039;-87
2022/11/04 08:43:16;;;;;;;6.93;3.20;;;;;;;13.08;71.68;100460.88;4794928;29;20054;-87
2022/11/04 08:45:44;;;;;;;9.57;3.70;;;;;;;13.14;72.04;100474.63;4783027;29;20035;-88
2022/11/04 08:48:10;;;;;;;9.45;3.70;;;;;;;13.46;70.95;100456.88;4778236;30;20062;-87
2022/11/04 08:50:35;;;;;;;7.32;4.15;;;;;;;14.09;70.13;100468.25;4793805;29;20058;-87
2022/11/04 08:53:03;;;;;;;5.13;2.92;;;;;;;15.14;66.78;100460.75;4805265;29;20209;-87
2022/11/04 08:55:28;;;;;;;6.80;3.15;;;;;;;16.79;61.91;100455.66;4799525;29;20061;-86
2022/11/04 08:57:53;;;;;;;6.55;3.45;;;;;;;17.98;56.04;100450.38;4803656;29;20058;-86
2022/11/04 09:00:19;;;;;;;8.90;3.60;;;;;;;18.64;54.59;100450.53;4792381;29;20083;-87
2022/11/04 09:02:45;;;;;;;7.18;3.00;;;;;;;19.23;52.09;100463.63;4805192;29;20070;-86
2022/11/04 09:05:10;;;;;;;6.03;3.00;;;;;;;18.87;52.75;100465.63;4792828;29;20054;-86
2022/11/04 09:07:36;;;;;;;5.28;2.92;;;;;;;18.49;52.99;100479.38;4788109;29;20041;-87
2022/11/04 09:10:02;;;;;;;6.10;3.00;;;;;;;17.64;56.43;100493.03;4772351;29;20039;-87
2022/11/04 09:12:27;;;;;;;5.57;3.38;;;;;;;16.85;57.66;100504.22;4797740;29;20468;-87
2022/11/04 09:14:52;;;;;;;7.60;3.70;;;;;;;16.17;58.89;100498.25;4776522;29;20080;-87
2022/11/04 09:17:18;;;;;;;6.82;3.22;;;;;;;15.13;60.91;100486.53;4793262;29;20133;-87
2022/11/04 09:19:43;;;;;;;8.75;3.67;;;;;;;14.45;64.87;100483.72;4782150;29;20059;-87
2022/11/04 09:22:08;;;;;;;7.72;3.95;;;;;;;14.24;65.98;100505.38;4781083;29;20031;-87
2022/11/04 09:24:34;;;;;;;9.90;4.00;;;;;;;14.01;66.23;100503.25;4793063;29;20031;-87
2022/11/04 09:26:59;;;;;;;12.00;4.43;;;;;;;13.90;67.63;100513.69;4802891;29;20035;-87
2022/11/04 09:29:24;;;;;;;11.35;3.67;;;;;;;13.72;67.36;100518.28;4792351;29;20091;-87
2022/11/04 09:31:50;;;;;;;7.45;3.92;;;;;;;13.45;68.05;100520.72;4787432;29;20027;-88
2022/11/04 09:34:16;;;;;;;9.52;3.72;;;;;;;13.09;68.71;100534.22;4776655;29;20026;-87
2022/11/04 09:36:43;;;;;;;14.05;4.30;;;;;;;12.96;69.13;100526.06;4801370;29;20085;-87
2022/11/04 09:39:09;;;;;;;11.20;4.03;;;;;;;12.93;69.06;100536.88;4764051;29;20093;-87
2022/11/04 09:41:47;;;;;;;11.45;4.22;;;;;;;12.89;70.19;100527.38;4792810;29;20067;-87
2022/11/04 09:44:22;;;;;;;12.10;4.32;;;;;;;12.95;69.89;100541.16;4770483;30;20031;-88
2022/11/04 09:46:49;;;;;;;13.13;3.78;;;;;;;13.06;70.34;100550.34;4788727;29;20427;-88
2022/11/04 09:49:15;;;;;;;13.43;4.53;;;;;;;13.19;70.33;100544.25;4799271;29;20042;-87
2022/11/04 09:51:44;;;;;;;11.00;4.15;;;;;;;13.33;69.78;100553.28;4802638;29;20038;-87
2022/11/04 09:54:18;;;;;;;6.75;3.95;;;;;;;13.15;70.01;100553.34;4777492;29;20080;-88
2022/11/04 09:56:46;;;;;;;8.23;4.05;;;;;;;13.18;70.02;100549.66;4775935;29;20031;-88
2022/11/04 09:59:19;;;;;;;8.13;3.72;;;;;;;13.11;69.84;100550.94;4795993;29;20110;-87
2022/11/04 10:01:54;;;;;;;9.75;3.80;;;;;;;13.39;69.92;100563.56;4785016;29;20030;-88
2022/11/04 10:04:22;;;;;;;9.70;3.97;;;;;;;13.68;68.92;100564.56;4794022;29;20695;-88
2022/11/04 10:07:10;;;;;;;8.15;3.55;;;;;;;13.95;68.48;100570.94;4786056;29;20062;-87
2022/11/04 10:09:49;;;;;;;12.23;4.25;;;;;;;14.00;68.04;100568.00;4791359;29;20023;-88
2022/11/04 10:12:25;;;;;;;8.60;3.42;;;;;;;13.93;67.67;100588.75;4804551;29;20054;-87
2022/11/04 10:14:56;;;;;;;7.20;3.53;;;;;;;13.88;67.88;100580.19;4791924;29;20086;-88
2022/11/04 10:17:49;;;;;;;8.40;3.50;;;;;;;13.88;68.59;100566.91;4787343;29;20395;-88
2022/11/04 10:20:30;;;;;;;10.30;4.28;;;;;;;14.11;68.45;100578.00;4761888;29;20047;-88
2022/11/04 10:22:58;;;;;;;10.90;4.53;;;;;;;14.31;66.58;100577.66;4797794;29;20412;-87
2022/11/04 10:25:37;;;;;;;7.00;4.35;;;;;;;14.62;66.47;100571.38;4779395;29;20039;-88
2022/11/04 10:28:04;;;;;;;12.55;4.40;;;;;;;15.39;65.05;100572.75;4796073;29;20043;-88
2022/11/04 10:30:30;;;;;;;6.90;4.05;;;;;;;16.13;61.58;100570.56;4796796;29;20519;-87
2022/11/04 10:33:18;;;;;;;9.73;5.10;;;;;;;17.57;59.35;100578.16;4798403;29;20084;-87
2022/11/04 10:35:47;;;;;;;12.77;5.07;;;;;;;18.40;54.66;100587.16;4796977;29;20078;-87
2022/11/04 10:38:25;;;;;;;9.60;3.97;;;;;;;18.09;54.29;100597.53;4764821;30;20511;-87
2022/11/04 10:40:53;;;;;;;11.43;4.43;;;;;;;17.21;56.13;100583.53;4801513;29;20038;-87
2022/11/04 10:43:34;;;;;;;12.68;5.18;;;;;;;16.62;59.87;100596.59;4792056;29;20031;-87
2022/11/04 10:46:25;;;;;;;9.33;5.37;;;;;;;16.31;60.83;100601.34;4785887;30;20047;-87
2022/11/04 10:48:55;;;;;;;12.13;6.32;;;;;;;16.10;59.85;100606.31;4779580;29;20043;-87
2022/11/04 10:51:22;;;;;;;14.10;6.88;;;;;;;16.03;59.93;100616.53;4791988;29;20393;-87
2022/11/04 10:53:55;;;;;;;13.07;6.80;;;;;;;16.00;60.39;100615.91;4786245;29;20511;-87
2022/11/04 10:56:32;;;;;;;8.77;6.50;;;;;;;15.90;60.81;100617.44;4785406;29;20038;-88
2022/11/04 10:59:13;;;;;;;14.68;7.25;;;;;;;15.92;60.17;100607.53;4780683;29;20038;-88
2022/11/04 11:01:48;;;;;;;17.38;8.45;;;;;;;16.65;59.07;100602.56;4786553;29;20110;-88
2022/11/04 11:04:27;;;;;;;13.50;8.15;;;;;;;19.79;51.81;100603.75;4793166;29;20023;-87
2022/11/04 11:06:55;;;;;;;10.93;6.18;;;;;;;22.25;43.24;100594.75;4786613;29;20444;-87
2022/11/04 11:09:28;;;;;;;11.32;5.53;;;;;;;22.33;41.34;100594.88;4803062;29;20039;-87
2022/11/04 11:11:56;;;;;;;12.60;6.75;;;;;;;20.51;45.35;100592.34;4802421;29;20125;-88
2022/11/04 11:14:27;;;;;;;11.48;6.25;;;;;;;19.56;48.34;100605.63;4793632;29;20039;-87
2022/11/04 11:16:56;;;;;;;9.43;6.10;;;;;;;18.86;50.82;100603.22;4803904;29;20034;-87
2022/11/04 11:19:24;;;;;;;9.32;5.43;;;;;;;19.24;50.01;100602.00;4786932;29;20031;-88
2022/11/04 11:21:50;;;;;;;14.45;6.38;;;;;;;21.06;45.92;100621.66;4788346;29;20059;-87
2022/11/04 11:24:25;;;;;;;11.18;5.03;;;;;;;22.68;44.19;100617.66;4778041;30;20042;-88
2022/11/04 11:26:53;;;;;;;10.80;4.85;;;;;;;23.03;39.96;100619.72;4781604;29;20035;-87
2022/11/04 11:29:41;;;;;;;9.75;4.43;;;;;;;21.73;45.64;100618.38;4785246;30;20493;-88
2022/11/04 11:32:29;;;;;;;9.38;4.80;;;;;;;21.52;45.99;100621.16;4779741;30;20063;-87
2022/11/04 11:34:54;;;;;;;7.53;4.22;;;;;;;22.98;40.57;100621.16;4762986;30;20032;-88
2022/11/04 11:37:24;;;;;;;11.32;4.90;;;;;;;22.82;42.92;100614.50;4780961;30;20108;-88
2022/11/04 11:39:49;;;;;;;9.02;4.70;;;;;;;21.29;45.17;100616.94;4774225;29;20463;-88
2022/11/04 11:42:16;;;;;;;9.32;4.95;;;;;;;20.69;44.68;100611.41;4778692;29;20127;-88
2022/11/04 11:44:50;;;;;;;13.35;5.10;;;;;;;19.92;47.66;100618.84;4779927;29;20527;-88
2022/11/04 11:47:29;;;;;;;8.68;5.07;;;;;;;20.11;47.05;100603.78;4773513;30;20146;-88
2022/11/04 11:50:14;;;;;;;8.80;4.60;;;;;;;21.09;46.75;100619.56;4774668;30;20044;-88
2022/11/04 11:52:42;;;;;;;6.50;4.38;;;;;;;21.46;43.03;100599.34;4782395;29;20134;-88
2022/11/04 11:55:10;;;;;;;9.40;4.95;;;;;;;22.35;41.90;100625.22;4784047;29;20511;-88
2022/11/04 11:57:44;;;;;;;9.23;5.28;;;;;;;23.35;39.73;100630.09;4782306;29;20028;-88
2022/11/04 12:00:14;;;;;;;8.98;4.75;;;;;;;23.28;40.57;100620.06;4777370;30;20030;-88
2022/11/04 12:02:45;;;;;;;9.95;4.55;;;;;;;23.09;40.46;100629.09;4780432;29;20028;-89
2022/11/04 12:05:12;;;;;;;10.13;5.17;;;;;;;23.41;40.07;100618.72;4783868;29;20051;-88